createdAt,value
2022-11-26T00:00:51.976Z,991.62
2022-11-26T00:01:51.930Z,991.69
2022-11-26T00:02:51.986Z,991.65
2022-11-26T00:03:51.857Z,991.64
2022-11-26T00:04:51.904Z,991.65
2022-11-26T00:05:51.837Z,991.69
2022-11-26T00:06:51.845Z,991.72
2022-11-26T00:07:51.872Z,991.73
2022-11-26T00:08:51.825Z,991.73
2022-11-26T00:09:51.804Z,991.73
2022-11-26T00:10:51.812Z,991.73
2022-11-26T00:11:51.785Z,991.74
2022-11-26T00:12:51.780Z,991.75
2022-11-26T00:13:51.763Z,991.80
2022-11-26T00:14:51.794Z,991.79
2022-11-26T00:15:51.746Z,991.80
2022-11-26T00:16:51.821Z,991.82
2022-11-26T00:17:51.710Z,991.80
2022-11-26T00:18:51.704Z,991.82
2022-11-26T00:19:51.696Z,991.85
2022-11-26T00:20:51.694Z,991.82
2022-11-26T00:21:51.724Z,991.83
2022-11-26T00:22:52.255Z,991.81
2022-11-26T00:23:51.642Z,991.81
2022-11-26T00:24:51.652Z,991.85
2022-11-26T00:25:51.632Z,991.83
2022-11-26T00:26:51.648Z,991.90
2022-11-26T00:27:51.595Z,991.88
2022-11-26T00:28:51.616Z,991.89
2022-11-26T00:29:51.593Z,991.92
2022-11-26T00:30:51.594Z,991.90
2022-11-26T00:31:51.633Z,991.92
2022-11-26T00:32:51.565Z,991.96
2022-11-26T00:33:51.544Z,991.94
2022-11-26T00:34:51.548Z,991.99
2022-11-26T00:35:51.521Z,991.99
2022-11-26T00:36:51.512Z,992.02
2022-11-26T00:37:51.494Z,992.05
2022-11-26T00:38:51.493Z,992.05
2022-11-26T00:39:51.452Z,992.04
2022-11-26T00:40:51.471Z,992.11
2022-11-26T00:41:51.432Z,992.17
2022-11-26T00:42:51.452Z,992.14
2022-11-26T00:43:51.438Z,992.21
2022-11-26T00:44:51.423Z,992.17
2022-11-26T00:45:51.438Z,992.18
2022-11-26T00:46:51.403Z,992.24
2022-11-26T00:47:51.382Z,992.25
2022-11-26T00:48:51.392Z,992.24
2022-11-26T00:49:51.368Z,992.22
2022-11-26T00:50:51.368Z,992.26
2022-11-26T00:51:51.324Z,992.22
2022-11-26T00:52:51.343Z,992.25
2022-11-26T00:53:51.336Z,992.24
2022-11-26T00:54:51.322Z,992.23
2022-11-26T00:55:51.291Z,992.26
2022-11-26T00:56:51.301Z,992.24
2022-11-26T00:57:51.339Z,992.26
2022-11-26T00:58:51.283Z,992.23
2022-11-26T00:59:51.253Z,992.26
2022-11-26T01:00:51.324Z,992.25
2022-11-26T01:01:51.303Z,992.25
2022-11-26T01:02:51.230Z,992.28
2022-11-26T01:03:51.253Z,992.32
2022-11-26T01:04:51.213Z,992.37
2022-11-26T01:05:51.204Z,992.41
2022-11-26T01:06:51.196Z,992.42
2022-11-26T01:07:51.218Z,992.43
2022-11-26T01:08:51.172Z,992.45
2022-11-26T01:09:51.207Z,992.44
2022-11-26T01:10:51.144Z,992.43
2022-11-26T01:11:54.229Z,992.42
2022-11-26T01:12:51.201Z,992.46
2022-11-26T01:13:51.083Z,992.53
2022-11-26T01:14:51.091Z,992.52
2022-11-26T01:15:52.091Z,992.51
2022-11-26T01:16:51.150Z,992.56
2022-11-26T01:17:51.054Z,992.52
2022-11-26T01:18:51.062Z,992.55
2022-11-26T01:19:51.011Z,992.56
2022-11-26T01:20:51.060Z,992.57
2022-11-26T01:21:51.007Z,992.58
2022-11-26T01:22:51.021Z,992.61
2022-11-26T01:23:50.970Z,992.63
2022-11-26T01:24:50.969Z,992.63
2022-11-26T01:25:50.949Z,992.67
2022-11-26T01:26:50.970Z,992.65
2022-11-26T01:27:50.943Z,992.66
2022-11-26T01:28:50.931Z,992.67
2022-11-26T01:29:50.960Z,992.67
2022-11-26T01:30:50.906Z,992.66
2022-11-26T01:31:51.037Z,992.70
2022-11-26T01:32:50.891Z,992.69
2022-11-26T01:33:50.953Z,992.72
2022-11-26T01:34:50.865Z,992.73
2022-11-26T01:35:50.828Z,992.70
2022-11-26T01:36:50.857Z,992.75
2022-11-26T01:37:51.058Z,992.74
2022-11-26T01:38:50.821Z,992.76
2022-11-26T01:39:50.795Z,992.79
2022-11-26T01:40:50.788Z,992.76
2022-11-26T01:41:50.808Z,992.79
2022-11-26T01:42:50.777Z,992.81
2022-11-26T01:43:50.824Z,992.83
2022-11-26T01:44:50.749Z,992.86
2022-11-26T01:45:50.770Z,992.85
2022-11-26T01:46:50.740Z,992.88
2022-11-26T01:47:50.689Z,992.88
2022-11-26T01:48:50.700Z,992.89
2022-11-26T01:49:50.672Z,992.86
2022-11-26T01:50:50.688Z,992.90
2022-11-26T01:51:50.640Z,992.91
2022-11-26T01:52:50.694Z,992.91
2022-11-26T01:53:50.630Z,992.94
2022-11-26T01:54:50.636Z,992.93
2022-11-26T01:55:50.629Z,992.96
2022-11-26T01:56:50.618Z,992.90
2022-11-26T01:57:50.588Z,992.99
2022-11-26T01:58:50.589Z,992.99
2022-11-26T01:59:50.558Z,992.96
2022-11-26T02:00:50.588Z,993.00
2022-11-26T02:01:50.547Z,992.95
2022-11-26T02:02:50.537Z,993.05
2022-11-26T02:03:50.508Z,993.02
2022-11-26T02:04:50.538Z,993.06
2022-11-26T02:05:50.488Z,993.05
2022-11-26T02:06:50.505Z,993.06
2022-11-26T02:07:50.531Z,993.05
2022-11-26T02:08:50.493Z,993.07
2022-11-26T02:09:50.437Z,993.09
2022-11-26T02:10:50.449Z,993.03
2022-11-26T02:11:50.415Z,993.05
2022-11-26T02:12:50.442Z,993.03
2022-11-26T02:13:50.388Z,993.05
2022-11-26T02:14:50.415Z,993.04
2022-11-26T02:15:50.397Z,993.09
2022-11-26T02:16:50.454Z,993.07
2022-11-26T02:17:50.397Z,993.11
2022-11-26T02:18:50.365Z,993.08
2022-11-26T02:19:50.339Z,993.11
2022-11-26T02:20:50.346Z,993.17
2022-11-26T02:21:50.324Z,993.14
2022-11-26T02:22:50.320Z,993.14
2022-11-26T02:23:50.277Z,993.13
2022-11-26T02:24:50.301Z,993.13
2022-11-26T02:25:50.295Z,993.21
2022-11-26T02:26:50.279Z,993.12
2022-11-26T02:27:50.228Z,993.14
2022-11-26T02:28:50.249Z,993.14
2022-11-26T02:29:50.248Z,993.19
2022-11-26T02:30:50.226Z,993.15
2022-11-26T02:31:50.286Z,993.20
2022-11-26T02:32:50.219Z,993.19
2022-11-26T02:33:50.166Z,993.22
2022-11-26T02:34:50.174Z,993.24
2022-11-26T02:35:50.147Z,993.23
2022-11-26T02:36:50.157Z,993.22
2022-11-26T02:37:50.703Z,993.25
2022-11-26T02:38:50.148Z,993.24
2022-11-26T02:39:50.095Z,993.27
2022-11-26T02:40:50.128Z,993.27
2022-11-26T02:41:50.103Z,993.22
2022-11-26T02:42:50.104Z,993.24
2022-11-26T02:43:50.079Z,993.20
2022-11-26T02:44:50.076Z,993.26
2022-11-26T02:45:50.116Z,993.27
2022-11-26T02:46:50.053Z,993.25
2022-11-26T02:47:50.029Z,993.25
2022-11-26T02:48:50.035Z,993.29
2022-11-26T02:49:49.992Z,993.27
2022-11-26T02:50:50.015Z,993.31
2022-11-26T02:51:49.965Z,993.27
2022-11-26T02:52:49.995Z,993.29
2022-11-26T02:53:49.955Z,993.29
2022-11-26T02:54:50.291Z,993.32
2022-11-26T02:55:49.944Z,993.31
2022-11-26T02:56:50.513Z,993.30
2022-11-26T02:57:49.994Z,993.26
2022-11-26T02:58:49.945Z,993.23
2022-11-26T02:59:49.884Z,993.24
2022-11-26T03:00:49.915Z,993.18
2022-11-26T03:01:49.865Z,993.21
2022-11-26T03:02:49.874Z,993.19
2022-11-26T03:03:49.888Z,993.17
2022-11-26T03:04:49.846Z,993.20
2022-11-26T03:05:49.850Z,993.17
2022-11-26T03:06:49.830Z,993.15
2022-11-26T03:07:49.839Z,993.17
2022-11-26T03:08:49.813Z,993.16
2022-11-26T03:09:49.782Z,993.15
2022-11-26T03:10:49.793Z,993.20
2022-11-26T03:11:49.770Z,993.21
2022-11-26T03:12:49.752Z,993.19
2022-11-26T03:13:49.727Z,993.20
2022-11-26T03:14:49.736Z,993.19
2022-11-26T03:15:49.702Z,993.16
2022-11-26T03:16:50.427Z,993.15
2022-11-26T03:17:50.443Z,993.12
2022-11-26T03:18:49.778Z,993.14
2022-11-26T03:19:50.562Z,993.17
2022-11-26T03:20:52.403Z,993.15
2022-11-26T03:21:49.645Z,993.16
2022-11-26T03:22:49.645Z,993.15
2022-11-26T03:23:49.621Z,993.20
2022-11-26T03:24:49.593Z,993.12
2022-11-26T03:25:49.645Z,993.18
2022-11-26T03:26:49.573Z,993.12
2022-11-26T03:27:49.614Z,993.16
2022-11-26T03:28:49.544Z,993.17
2022-11-26T03:29:49.580Z,993.17
2022-11-26T03:30:49.544Z,993.18
2022-11-26T03:31:49.597Z,993.23
2022-11-26T03:32:49.522Z,993.18
2022-11-26T03:33:49.522Z,993.17
2022-11-26T03:34:49.473Z,993.12
2022-11-26T03:35:49.494Z,993.11
2022-11-26T03:36:49.460Z,993.11
2022-11-26T03:37:50.169Z,993.13
2022-11-26T03:38:50.330Z,993.09
2022-11-26T03:39:49.571Z,993.13
2022-11-26T03:40:49.405Z,993.16
2022-11-26T03:41:49.419Z,993.09
2022-11-26T03:42:49.404Z,993.12
2022-11-26T03:43:49.409Z,993.14
2022-11-26T03:44:49.368Z,993.18
2022-11-26T03:45:49.414Z,993.16
2022-11-26T03:46:49.350Z,993.18
2022-11-26T03:47:49.360Z,993.17
2022-11-26T03:48:49.327Z,993.16
2022-11-26T03:49:49.532Z,993.20
2022-11-26T03:50:49.290Z,993.20
2022-11-26T03:51:49.309Z,993.23
2022-11-26T03:52:49.283Z,993.22
2022-11-26T03:53:49.289Z,993.24
2022-11-26T03:54:49.251Z,993.23
2022-11-26T03:55:49.257Z,993.26
2022-11-26T03:56:49.266Z,993.24
2022-11-26T03:57:49.239Z,993.28
2022-11-26T03:58:49.240Z,993.25
2022-11-26T03:59:49.299Z,993.23
2022-11-26T04:00:49.204Z,993.22
2022-11-26T04:01:49.280Z,993.18
2022-11-26T04:02:49.179Z,993.24
2022-11-26T04:03:49.169Z,993.19
2022-11-26T04:04:49.150Z,993.20
2022-11-26T04:05:49.149Z,993.19
2022-11-26T04:06:49.111Z,993.20
2022-11-26T04:07:49.222Z,993.20
2022-11-26T04:08:49.089Z,993.19
2022-11-26T04:09:49.109Z,993.29
2022-11-26T04:10:49.097Z,993.23
2022-11-26T04:11:49.091Z,993.22
2022-11-26T04:12:49.131Z,993.25
2022-11-26T04:13:49.056Z,993.29
2022-11-26T04:14:49.031Z,993.25
2022-11-26T04:15:49.039Z,993.33
2022-11-26T04:16:49.064Z,993.39
2022-11-26T04:17:49.013Z,993.35
2022-11-26T04:18:49.116Z,993.35
2022-11-26T04:19:49.718Z,993.34
2022-11-26T04:20:53.051Z,993.34
2022-11-26T04:21:48.979Z,993.34
2022-11-26T04:22:49.350Z,993.39
2022-11-26T04:23:48.951Z,993.35
2022-11-26T04:24:48.927Z,993.38
2022-11-26T04:25:48.924Z,993.38
2022-11-26T04:26:48.910Z,993.39
2022-11-26T04:27:48.925Z,993.44
2022-11-26T04:28:48.869Z,993.48
2022-11-26T04:29:48.903Z,993.47
2022-11-26T04:30:48.848Z,993.45
2022-11-26T04:31:48.883Z,993.49
2022-11-26T04:32:48.842Z,993.47
2022-11-26T04:33:49.323Z,993.47
2022-11-26T04:34:48.933Z,993.49
2022-11-26T04:35:48.824Z,993.52
2022-11-26T04:36:48.821Z,993.55
2022-11-26T04:37:48.809Z,993.56
2022-11-26T04:38:48.780Z,993.57
2022-11-26T04:39:49.594Z,993.61
2022-11-26T04:40:48.848Z,993.59
2022-11-26T04:41:48.801Z,993.65
2022-11-26T04:42:48.713Z,993.67
2022-11-26T04:43:48.726Z,993.67
2022-11-26T04:44:49.055Z,993.64
2022-11-26T04:45:48.773Z,993.68
2022-11-26T04:46:48.675Z,993.70
2022-11-26T04:47:48.706Z,993.77
2022-11-26T04:48:48.729Z,993.80
2022-11-26T04:49:49.047Z,993.80
2022-11-26T04:50:48.646Z,993.81
2022-11-26T04:51:48.694Z,993.82
2022-11-26T04:52:48.640Z,993.88
2022-11-26T04:53:48.680Z,993.88
2022-11-26T04:54:48.584Z,993.93
2022-11-26T04:55:48.868Z,993.96
2022-11-26T04:56:48.558Z,993.98
2022-11-26T04:57:48.622Z,994.00
2022-11-26T04:58:48.538Z,993.99
2022-11-26T04:59:48.795Z,994.03
2022-11-26T05:00:51.324Z,994.09
2022-11-26T05:01:49.103Z,994.05
2022-11-26T05:02:48.508Z,994.06
2022-11-26T05:03:48.516Z,994.08
2022-11-26T05:04:48.491Z,994.10
2022-11-26T05:05:48.489Z,994.11
2022-11-26T05:06:49.171Z,994.11
2022-11-26T05:07:48.513Z,994.13
2022-11-26T05:08:48.441Z,994.13
2022-11-26T05:09:48.436Z,994.14
2022-11-26T05:10:48.468Z,994.17
2022-11-26T05:11:48.416Z,994.17
2022-11-26T05:12:48.384Z,994.16
2022-11-26T05:13:48.385Z,994.22
2022-11-26T05:14:48.443Z,994.20
2022-11-26T05:15:48.684Z,994.24
2022-11-26T05:16:48.459Z,994.19
2022-11-26T05:17:48.357Z,994.22
2022-11-26T05:18:48.315Z,994.23
2022-11-26T05:19:48.334Z,994.27
2022-11-26T05:20:48.435Z,994.25
2022-11-26T05:21:48.324Z,994.29
2022-11-26T05:22:48.336Z,994.32
2022-11-26T05:23:48.285Z,994.31
2022-11-26T05:24:48.245Z,994.32
2022-11-26T05:25:48.259Z,994.30
2022-11-26T05:26:52.370Z,994.33
2022-11-26T05:27:49.271Z,994.28
2022-11-26T05:28:48.226Z,994.28
2022-11-26T05:29:48.211Z,994.29
2022-11-26T05:30:48.242Z,994.27
2022-11-26T05:31:48.244Z,994.31
2022-11-26T05:32:48.166Z,994.33
2022-11-26T05:33:48.233Z,994.36
2022-11-26T05:34:48.135Z,994.39
2022-11-26T05:35:48.147Z,994.38
2022-11-26T05:36:48.158Z,994.41
2022-11-26T05:37:48.134Z,994.42
2022-11-26T05:38:48.117Z,994.42
2022-11-26T05:39:48.115Z,994.41
2022-11-26T05:40:48.337Z,994.41
2022-11-26T05:41:48.444Z,994.43
2022-11-26T05:42:48.090Z,994.43
2022-11-26T05:43:48.099Z,994.43
2022-11-26T05:44:48.023Z,994.45
2022-11-26T05:45:48.071Z,994.43
2022-11-26T05:46:47.981Z,994.47
2022-11-26T05:47:48.131Z,994.48
2022-11-26T05:48:47.990Z,994.45
2022-11-26T05:49:48.049Z,994.46
2022-11-26T05:50:51.555Z,994.47
2022-11-26T05:51:48.964Z,994.49
2022-11-26T05:52:47.940Z,994.49
2022-11-26T05:53:47.969Z,994.48
2022-11-26T05:54:47.922Z,994.48
2022-11-26T05:55:47.954Z,994.49
2022-11-26T05:56:47.885Z,994.48
2022-11-26T05:57:47.903Z,994.52
2022-11-26T05:58:47.862Z,994.50
2022-11-26T05:59:47.973Z,994.52
2022-11-26T06:00:48.175Z,994.53
2022-11-26T06:01:48.782Z,994.52
2022-11-26T06:02:48.419Z,994.51
2022-11-26T06:03:47.918Z,994.54
2022-11-26T06:04:47.802Z,994.51
2022-11-26T06:05:47.812Z,994.55
2022-11-26T06:06:47.802Z,994.58
2022-11-26T06:07:47.811Z,994.62
2022-11-26T06:08:47.770Z,994.60
2022-11-26T06:09:47.766Z,994.60
2022-11-26T06:10:47.741Z,994.55
2022-11-26T06:11:47.801Z,994.57
2022-11-26T06:12:47.724Z,994.51
2022-11-26T06:13:47.735Z,994.49
2022-11-26T06:14:47.923Z,994.48
2022-11-26T06:15:47.706Z,994.53
2022-11-26T06:16:47.721Z,994.53
2022-11-26T06:17:47.673Z,994.56
2022-11-26T06:18:47.675Z,994.54
2022-11-26T06:19:47.641Z,994.57
2022-11-26T06:20:47.657Z,994.59
2022-11-26T06:21:47.631Z,994.59
2022-11-26T06:22:47.657Z,994.63
2022-11-26T06:23:55.840Z,994.61
2022-11-26T06:24:48.588Z,994.62
2022-11-26T06:25:47.585Z,994.63
2022-11-26T06:26:47.625Z,994.68
2022-11-26T06:27:47.571Z,994.69
2022-11-26T06:28:47.538Z,994.73
2022-11-26T06:29:47.541Z,994.71
2022-11-26T06:30:47.532Z,994.73
2022-11-26T06:31:47.558Z,994.68
2022-11-26T06:32:47.489Z,994.64
2022-11-26T06:33:47.499Z,994.67
2022-11-26T06:34:52.569Z,994.68
2022-11-26T06:35:48.476Z,994.75
2022-11-26T06:36:47.434Z,994.71
2022-11-26T06:37:47.451Z,994.76
2022-11-26T06:38:47.504Z,994.78
2022-11-26T06:39:47.430Z,994.80
2022-11-26T06:40:47.389Z,994.83
2022-11-26T06:41:47.491Z,994.80
2022-11-26T06:42:47.393Z,994.84
2022-11-26T06:43:47.379Z,994.85
2022-11-26T06:44:47.348Z,994.86
2022-11-26T06:45:47.464Z,994.93
2022-11-26T06:46:47.318Z,994.91
2022-11-26T06:47:47.352Z,994.99
2022-11-26T06:48:47.310Z,994.96
2022-11-26T06:49:47.358Z,994.96
2022-11-26T06:50:47.289Z,994.97
2022-11-26T06:51:47.301Z,994.95
2022-11-26T06:52:47.271Z,994.95
2022-11-26T06:53:47.324Z,994.98
2022-11-26T06:54:47.238Z,995.02
2022-11-26T06:55:47.296Z,995.02
2022-11-26T06:56:47.225Z,995.04
2022-11-26T06:57:47.296Z,995.08
2022-11-26T06:58:47.219Z,995.10
2022-11-26T06:59:47.330Z,995.12
2022-11-26T07:00:47.177Z,995.12
2022-11-26T07:01:48.123Z,995.17
2022-11-26T07:02:47.261Z,995.17
2022-11-26T07:03:47.177Z,995.20
2022-11-26T07:04:47.130Z,995.18
2022-11-26T07:05:47.198Z,995.19
2022-11-26T07:06:47.159Z,995.20
2022-11-26T07:07:47.189Z,995.18
2022-11-26T07:08:47.081Z,995.18
2022-11-26T07:09:47.115Z,995.18
2022-11-26T07:10:49.131Z,995.18
2022-11-26T07:11:47.080Z,995.17
2022-11-26T07:12:47.089Z,995.21
2022-11-26T07:13:47.045Z,995.13
2022-11-26T07:14:47.048Z,995.17
2022-11-26T07:15:47.078Z,995.13
2022-11-26T07:16:47.001Z,995.20
2022-11-26T07:17:47.014Z,995.16
2022-11-26T07:18:46.976Z,995.13
2022-11-26T07:19:47.045Z,995.14
2022-11-26T07:20:46.966Z,995.13
2022-11-26T07:21:46.998Z,995.15
2022-11-26T07:22:47.388Z,995.17
2022-11-26T07:23:47.682Z,995.17
2022-11-26T07:24:46.916Z,995.23
2022-11-26T07:25:47.036Z,995.20
2022-11-26T07:26:46.897Z,995.25
2022-11-26T07:27:46.941Z,995.24
2022-11-26T07:28:46.868Z,995.22
2022-11-26T07:29:46.885Z,995.25
2022-11-26T07:30:46.835Z,995.26
2022-11-26T07:31:46.901Z,995.23
2022-11-26T07:32:46.810Z,995.28
2022-11-26T07:33:46.828Z,995.28
2022-11-26T07:34:46.862Z,995.30
2022-11-26T07:35:47.803Z,995.36
2022-11-26T07:36:46.766Z,995.36
2022-11-26T07:37:46.784Z,995.36
2022-11-26T07:38:46.767Z,995.36
2022-11-26T07:39:46.779Z,995.38
2022-11-26T07:40:47.007Z,995.35
2022-11-26T07:41:46.712Z,995.35
2022-11-26T07:42:51.832Z,995.35
2022-11-26T07:43:47.702Z,995.36
2022-11-26T07:44:47.482Z,995.37
2022-11-26T07:45:46.872Z,995.37
2022-11-26T07:46:46.685Z,995.39
2022-11-26T07:47:46.686Z,995.36
2022-11-26T07:48:46.661Z,995.37
2022-11-26T07:49:46.631Z,995.36
2022-11-26T07:50:46.643Z,995.35
2022-11-26T07:51:46.596Z,995.37
2022-11-26T07:52:46.623Z,995.38
2022-11-26T07:53:46.588Z,995.38
2022-11-26T07:54:46.606Z,995.40
2022-11-26T07:55:46.556Z,995.43
2022-11-26T07:56:46.954Z,995.44
2022-11-26T07:57:46.707Z,995.42
2022-11-26T07:58:46.553Z,995.47
2022-11-26T07:59:46.513Z,995.41
2022-11-26T08:00:49.669Z,995.38
2022-11-26T08:01:47.552Z,995.40
2022-11-26T08:02:47.031Z,995.39
2022-11-26T08:03:46.464Z,995.36
2022-11-26T08:04:46.531Z,995.38
2022-11-26T08:05:46.460Z,995.38
2022-11-26T08:06:46.452Z,995.37
2022-11-26T08:07:47.388Z,995.44
2022-11-26T08:08:46.442Z,995.41
2022-11-26T08:09:46.411Z,995.45
2022-11-26T08:10:46.426Z,995.54
2022-11-26T08:11:46.415Z,995.54
2022-11-26T08:12:46.392Z,995.58
2022-11-26T08:13:46.367Z,995.61
2022-11-26T08:14:46.375Z,995.64
2022-11-26T08:15:46.435Z,995.63
2022-11-26T08:16:46.436Z,995.68
2022-11-26T08:17:46.383Z,995.64
2022-11-26T08:18:46.332Z,995.68
2022-11-26T08:19:46.312Z,995.67
2022-11-26T08:20:46.315Z,995.72
2022-11-26T08:21:46.270Z,995.68
2022-11-26T08:22:46.289Z,995.74
2022-11-26T08:23:46.474Z,995.71
2022-11-26T08:24:46.297Z,995.73
2022-11-26T08:26:14.316Z,995.73
2022-11-26T08:26:47.245Z,995.75
2022-11-26T08:27:46.218Z,995.73
2022-11-26T08:28:46.228Z,995.71
2022-11-26T08:29:46.172Z,995.70
2022-11-26T08:30:46.220Z,995.74
2022-11-26T08:31:46.858Z,995.69
2022-11-26T08:32:46.350Z,995.75
2022-11-26T08:33:46.171Z,995.72
2022-11-26T08:34:46.172Z,995.78
2022-11-26T08:36:06.043Z,995.82
2022-11-26T08:36:47.139Z,995.82
2022-11-26T08:37:46.111Z,995.84
2022-11-26T08:38:46.118Z,995.82
2022-11-26T08:39:46.073Z,995.82
2022-11-26T08:40:46.138Z,995.86
2022-11-26T08:41:51.621Z,995.83
2022-11-26T08:42:47.080Z,995.82
2022-11-26T08:44:05.668Z,995.82
2022-11-26T08:44:47.041Z,995.81
2022-11-26T08:45:47.000Z,995.87
2022-11-26T08:46:46.115Z,995.83
2022-11-26T08:47:46.043Z,995.88
2022-11-26T08:48:45.993Z,995.89
2022-11-26T08:49:45.959Z,995.88
2022-11-26T08:50:45.973Z,995.89
2022-11-26T08:51:45.940Z,995.91
2022-11-26T08:52:45.957Z,995.86
2022-11-26T08:53:45.935Z,995.83
2022-11-26T08:54:46.161Z,995.80
2022-11-26T08:55:59.664Z,995.77
2022-11-26T08:56:46.911Z,995.78
2022-11-26T08:57:45.850Z,995.81
2022-11-26T08:58:45.924Z,995.82
2022-11-26T08:59:45.849Z,995.77
2022-11-26T09:00:45.906Z,995.83
2022-11-26T09:01:45.873Z,995.83
2022-11-26T09:02:45.889Z,995.81
2022-11-26T09:03:45.814Z,995.81
2022-11-26T09:04:45.833Z,995.82
2022-11-26T09:05:45.926Z,995.82
2022-11-26T09:06:45.801Z,995.86
2022-11-26T09:07:49.051Z,995.83
2022-11-26T09:08:45.829Z,995.83
2022-11-26T09:09:45.739Z,995.85
2022-11-26T09:10:55.041Z,995.86
2022-11-26T09:11:45.730Z,995.89
2022-11-26T09:12:45.711Z,995.90
2022-11-26T09:13:45.700Z,995.86
2022-11-26T09:14:45.718Z,995.93
2022-11-26T09:15:45.661Z,995.92
2022-11-26T09:16:45.793Z,995.87
2022-11-26T09:17:45.656Z,995.86
2022-11-26T09:18:45.650Z,995.85
2022-11-26T09:19:45.624Z,995.83
2022-11-26T09:20:45.655Z,995.82
2022-11-26T09:21:45.594Z,995.85
2022-11-26T09:22:45.723Z,995.86
2022-11-26T09:23:45.584Z,995.84
2022-11-26T09:24:45.824Z,995.79
2022-11-26T09:25:45.569Z,995.79
2022-11-26T09:26:45.582Z,995.80
2022-11-26T09:27:46.005Z,995.79
2022-11-26T09:28:45.648Z,995.82
2022-11-26T09:29:45.523Z,995.82
2022-11-26T09:30:45.528Z,995.75
2022-11-26T09:32:15.581Z,995.77
2022-11-26T09:32:46.544Z,995.76
2022-11-26T09:33:45.460Z,995.79
2022-11-26T09:34:45.489Z,995.80
2022-11-26T09:35:46.286Z,995.71
2022-11-26T09:36:45.532Z,995.74
2022-11-26T09:37:51.222Z,995.75
2022-11-26T09:38:46.449Z,995.74
2022-11-26T09:39:45.412Z,995.73
2022-11-26T09:40:45.440Z,995.76
2022-11-26T09:41:45.388Z,995.82
2022-11-26T09:42:45.638Z,995.82
2022-11-26T09:43:47.220Z,995.81
2022-11-26T09:44:45.367Z,995.85
2022-11-26T09:45:45.371Z,995.86
2022-11-26T09:47:10.531Z,995.87
2022-11-26T09:47:46.359Z,995.88
2022-11-26T09:48:45.348Z,995.96
2022-11-26T09:49:45.288Z,995.93
2022-11-26T09:50:45.297Z,995.97
2022-11-26T09:51:45.280Z,995.99
2022-11-26T09:52:45.708Z,995.99
2022-11-26T09:53:45.259Z,996.04
2022-11-26T09:54:45.280Z,996.03
2022-11-26T09:55:45.219Z,996.03
2022-11-26T09:56:46.041Z,996.03
2022-11-26T09:57:45.950Z,996.08
2022-11-26T09:58:45.250Z,996.05
2022-11-26T09:59:45.199Z,996.05
2022-11-26T10:00:45.197Z,996.04
2022-11-26T10:01:46.166Z,996.04
2022-11-26T10:02:45.222Z,996.02
2022-11-26T10:03:45.877Z,995.98
2022-11-26T10:04:45.152Z,996.01
2022-11-26T10:05:45.100Z,996.04
2022-11-26T10:06:45.137Z,996.03
2022-11-26T10:07:46.065Z,995.99
2022-11-26T10:08:45.908Z,995.99
2022-11-26T10:09:45.073Z,995.95
2022-11-26T10:10:45.139Z,995.95
2022-11-26T10:11:45.905Z,996.00
2022-11-26T10:13:03.441Z,995.97
2022-11-26T10:13:46.028Z,995.95
2022-11-26T10:14:45.036Z,996.04
2022-11-26T10:15:45.016Z,996.01
2022-11-26T10:16:45.228Z,995.98
2022-11-26T10:17:45.838Z,995.95
2022-11-26T10:18:45.718Z,995.95
2022-11-26T10:19:45.758Z,996.04
2022-11-26T10:20:45.308Z,996.01
2022-11-26T10:21:58.715Z,995.99
2022-11-26T10:22:46.877Z,996.02
2022-11-26T10:23:45.756Z,996.11
2022-11-26T10:24:44.939Z,996.10
2022-11-26T10:25:45.862Z,996.08
2022-11-26T10:26:45.720Z,996.11
2022-11-26T10:27:45.626Z,996.13
2022-11-26T10:28:45.788Z,996.08
2022-11-26T10:29:45.697Z,996.16
2022-11-26T10:30:45.594Z,996.15
2022-11-26T10:31:44.906Z,996.10
2022-11-26T10:32:44.887Z,996.12
2022-11-26T10:33:45.558Z,996.11
2022-11-26T10:34:45.950Z,996.10
2022-11-26T10:35:44.807Z,996.11
2022-11-26T10:36:45.534Z,996.10
2022-11-26T10:37:44.787Z,996.07
2022-11-26T10:38:44.752Z,996.04
2022-11-26T10:39:44.732Z,996.06
2022-11-26T10:40:44.744Z,996.04
2022-11-26T10:41:44.726Z,996.01
2022-11-26T10:42:44.736Z,996.04
2022-11-26T10:43:44.686Z,996.02
2022-11-26T10:44:44.725Z,996.09
2022-11-26T10:45:44.817Z,996.06
2022-11-26T10:46:45.029Z,996.10
2022-11-26T10:47:45.523Z,996.04
2022-11-26T10:48:44.646Z,996.03
2022-11-26T10:49:44.678Z,996.00
2022-11-26T10:50:48.241Z,996.03
2022-11-26T10:51:44.588Z,996.02
2022-11-26T10:52:44.709Z,996.02
2022-11-26T10:53:44.587Z,996.03
2022-11-26T10:54:44.587Z,996.00
2022-11-26T10:55:44.536Z,996.03
2022-11-26T10:56:45.572Z,996.01
2022-11-26T10:57:45.306Z,996.03
2022-11-26T10:58:44.625Z,996.03
2022-11-26T10:59:44.606Z,995.99
2022-11-26T11:00:44.825Z,996.07
2022-11-26T11:01:44.586Z,996.01
2022-11-26T11:02:44.536Z,995.99
2022-11-26T11:04:07.261Z,995.99
2022-11-26T11:04:45.684Z,996.05
2022-11-26T11:05:44.456Z,996.06
2022-11-26T11:06:45.210Z,996.08
2022-11-26T11:07:44.593Z,996.06
2022-11-26T11:08:45.276Z,996.21
2022-11-26T11:09:44.446Z,996.20
2022-11-26T11:10:45.337Z,996.18
2022-11-26T11:11:44.376Z,996.20
2022-11-26T11:12:45.151Z,996.18
2022-11-26T11:13:44.355Z,996.17
2022-11-26T11:14:44.965Z,996.19
2022-11-26T11:15:44.319Z,996.14
2022-11-26T11:16:44.402Z,996.17
2022-11-26T11:17:44.316Z,996.13
2022-11-26T11:18:44.359Z,996.14
2022-11-26T11:19:44.280Z,996.13
2022-11-26T11:20:44.291Z,996.09
2022-11-26T11:21:48.059Z,996.18
2022-11-26T11:22:44.394Z,996.18
2022-11-26T11:24:07.753Z,996.15
2022-11-26T11:24:45.535Z,996.16
2022-11-26T11:25:45.179Z,996.15
2022-11-26T11:26:44.237Z,996.17
2022-11-26T11:27:45.015Z,996.16
2022-11-26T11:28:44.215Z,996.15
2022-11-26T11:29:44.225Z,996.15
2022-11-26T11:30:44.957Z,996.13
2022-11-26T11:31:44.200Z,996.13
2022-11-26T11:32:44.155Z,996.10
2022-11-26T11:33:44.136Z,996.10
2022-11-26T11:34:44.153Z,996.11
2022-11-26T11:35:44.135Z,996.13
2022-11-26T11:36:44.117Z,996.10
2022-11-26T11:37:44.498Z,996.12
2022-11-26T11:38:44.117Z,996.18
2022-11-26T11:39:44.056Z,996.16
2022-11-26T11:40:44.065Z,996.19
2022-11-26T11:41:44.074Z,996.21
2022-11-26T11:42:44.067Z,996.15
2022-11-26T11:43:44.002Z,996.14
2022-11-26T11:44:44.015Z,996.09
2022-11-26T11:45:47.313Z,996.08
2022-11-26T11:46:45.026Z,996.06
2022-11-26T11:47:44.856Z,996.01
2022-11-26T11:48:44.107Z,996.00
2022-11-26T11:49:43.956Z,996.01
2022-11-26T11:50:43.985Z,995.98
2022-11-26T11:51:43.944Z,996.00
2022-11-26T11:52:44.057Z,996.04
2022-11-26T11:53:44.172Z,996.04
2022-11-26T11:54:43.896Z,996.07
2022-11-26T11:55:44.872Z,996.04
2022-11-26T11:56:43.888Z,996.05
2022-11-26T11:57:43.864Z,996.02
2022-11-26T11:58:43.865Z,996.03
2022-11-26T11:59:44.725Z,995.99
2022-11-26T12:00:44.647Z,996.02
2022-11-26T12:01:43.945Z,996.02
2022-11-26T12:02:43.799Z,995.99
2022-11-26T12:03:44.603Z,996.02
2022-11-26T12:04:43.899Z,996.00
2022-11-26T12:05:43.823Z,996.03
2022-11-26T12:06:43.758Z,996.04
2022-11-26T12:07:43.824Z,996.03
2022-11-26T12:08:44.155Z,996.07
2022-11-26T12:09:44.557Z,996.07
2022-11-26T12:10:43.961Z,996.08
2022-11-26T12:11:43.725Z,996.10
2022-11-26T12:12:43.705Z,996.10
2022-11-26T12:13:43.701Z,996.13
2022-11-26T12:14:44.816Z,996.13
2022-11-26T12:15:44.027Z,996.16
2022-11-26T12:16:43.730Z,996.24
2022-11-26T12:17:43.727Z,996.22
2022-11-26T12:18:43.615Z,996.27
2022-11-26T12:19:43.675Z,996.24
2022-11-26T12:20:43.647Z,996.26
2022-11-26T12:21:43.743Z,996.28
2022-11-26T12:22:43.738Z,996.25
2022-11-26T12:23:43.611Z,996.23
2022-11-26T12:24:43.578Z,996.29
2022-11-26T12:25:43.604Z,996.25
2022-11-26T12:26:43.557Z,996.23
2022-11-26T12:27:43.656Z,996.22
2022-11-26T12:28:48.285Z,996.22